sensor_id;sensor_type;location;lat;lon;timestamp;pressure;altitude;pressure_sealevel;temperature;humidity
41632;BME280;37452;51.938;4.624;2023-01-26T00:00:22;79305.44;;;-142.75;100.00
41632;BME280;37452;51.938;4.624;2023-01-26T00:02:48;79287.72;;;-142.75;100.00
41632;BME280;37452;51.938;4.624;2023-01-26T00:05:13;79287.72;;;-142.75;100.00
41632;BME280;37452;51.938;4.624;2023-01-26T00:07:38;79307.41;;;-142.75;100.00
41632;BME280;37452;51.938;4.624;2023-01-26T00:10:10;79271.94;;;-142.75;100.00
41632;BME280;37452;51.938;4.624;2023-01-26T00:12:35;79285.75;;;-142.75;100.00
41632;BME280;37452;51.938;4.624;2023-01-26T00:15:01;79279.84;;;-142.75;100.00
41632;BME280;37452;51.938;4.624;2023-01-26T00:17:27;79268.00;;;-142.75;100.00
41632;BME280;37452;51.938;4.624;2023-01-26T00:19:54;79266.03;;;-142.75;100.00
41632;BME280;37452;51.938;4.624;2023-01-26T00:22:20;79279.84;;;-142.75;100.00
41632;BME280;37452;51.938;4.624;2023-01-26T00:24:45;79248.31;;;-142.75;100.00
41632;BME280;37452;51.938;4.624;2023-01-26T00:27:11;79256.19;;;-142.75;100.00
41632;BME280;37452;51.938;4.624;2023-01-26T00:29:36;79252.25;;;-142.75;100.00
41632;BME280;37452;51.938;4.624;2023-01-26T00:32:01;79260.13;;;-142.75;100.00
41632;BME280;37452;51.938;4.624;2023-01-26T00:34:26;79268.00;;;-142.75;100.00
41632;BME280;37452;51.938;4.624;2023-01-26T00:36:52;79262.09;;;-142.75;100.00
41632;BME280;37452;51.938;4.624;2023-01-26T00:39:17;79264.06;;;-142.75;100.00
41632;BME280;37452;51.938;4.624;2023-01-26T00:41:42;79252.25;;;-142.75;100.00
41632;BME280;37452;51.938;4.624;2023-01-26T00:44:26;79246.34;;;-142.75;100.00
41632;BME280;37452;51.938;4.624;2023-01-26T00:46:52;79248.31;;;-142.75;100.00
41632;BME280;37452;51.938;4.624;2023-01-26T00:49:17;79236.50;;;-142.75;100.00
41632;BME280;37452;51.938;4.624;2023-01-26T00:51:42;79232.56;;;-142.75;100.00
41632;BME280;37452;51.938;4.624;2023-01-26T00:54:07;79240.44;;;-142.75;100.00
41632;BME280;37452;51.938;4.624;2023-01-26T00:56:33;79236.50;;;-142.75;100.00
41632;BME280;37452;51.938;4.624;2023-01-26T00:58:58;79214.81;;;-142.75;100.00
41632;BME280;37452;51.938;4.624;2023-01-26T01:01:23;79206.94;;;-142.75;100.00
41632;BME280;37452;51.938;4.624;2023-01-26T01:03:49;79212.84;;;-142.75;100.00
41632;BME280;37452;51.938;4.624;2023-01-26T01:06:16;79224.69;;;-142.75;100.00
41632;BME280;37452;51.938;4.624;2023-01-26T01:08:42;79240.44;;;-142.75;100.00
41632;BME280;37452;51.938;4.624;2023-01-26T01:11:09;79236.50;;;-142.75;100.00
41632;BME280;37452;51.938;4.624;2023-01-26T01:13:35;79232.56;;;-142.75;100.00
41632;BME280;37452;51.938;4.624;2023-01-26T01:16:03;79224.69;;;-142.75;100.00
41632;BME280;37452;51.938;4.624;2023-01-26T01:18:29;79240.44;;;-142.75;100.00
41632;BME280;37452;51.938;4.624;2023-01-26T01:20:54;79214.81;;;-142.75;100.00
41632;BME280;37452;51.938;4.624;2023-01-26T01:23:19;79224.69;;;-142.75;100.00
41632;BME280;37452;51.938;4.624;2023-01-26T01:25:45;79220.75;;;-142.75;100.00
41632;BME280;37452;51.938;4.624;2023-01-26T01:28:10;79264.06;;;-142.75;100.00
41632;BME280;37452;51.938;4.624;2023-01-26T01:30:37;79230.59;;;-142.75;100.00
41632;BME280;37452;51.938;4.624;2023-01-26T01:33:02;79244.38;;;-142.75;100.00
41632;BME280;37452;51.938;4.624;2023-01-26T01:35:27;79238.47;;;-142.75;100.00
41632;BME280;37452;51.938;4.624;2023-01-26T01:37:53;79208.91;;;-142.75;100.00
41632;BME280;37452;51.938;4.624;2023-01-26T01:40:18;79222.72;;;-142.75;100.00
41632;BME280;37452;51.938;4.624;2023-01-26T01:42:48;79212.84;;;-142.75;100.00
41632;BME280;37452;51.938;4.624;2023-01-26T01:47:56;79204.97;;;-142.75;100.00
41632;BME280;37452;51.938;4.624;2023-01-26T01:50:24;79206.94;;;-142.75;100.00
41632;BME280;37452;51.938;4.624;2023-01-26T01:52:50;79212.84;;;-142.75;100.00
41632;BME280;37452;51.938;4.624;2023-01-26T01:55:16;79214.81;;;-142.75;100.00
41632;BME280;37452;51.938;4.624;2023-01-26T01:57:46;79204.97;;;-142.75;100.00
41632;BME280;37452;51.938;4.624;2023-01-26T02:00:21;79204.97;;;-142.75;100.00
41632;BME280;37452;51.938;4.624;2023-01-26T02:02:51;79208.91;;;-142.75;100.00
41632;BME280;37452;51.938;4.624;2023-01-26T02:08:12;79191.19;;;-142.75;100.00
41632;BME280;37452;51.938;4.624;2023-01-26T02:10:39;79165.59;;;-142.75;100.00
41632;BME280;37452;51.938;4.624;2023-01-26T02:13:06;79177.41;;;-142.75;100.00
41632;BME280;37452;51.938;4.624;2023-01-26T02:15:32;79153.75;;;-142.75;100.00
41632;BME280;37452;51.938;4.624;2023-01-26T02:18:00;79139.97;;;-142.75;100.00
41632;BME280;37452;51.938;4.624;2023-01-26T02:26:05;79151.78;;;-142.75;100.00
41632;BME280;37452;51.938;4.624;2023-01-26T02:28:31;79159.69;;;-142.75;100.00
41632;BME280;37452;51.938;4.624;2023-01-26T02:30:57;79147.84;;;-142.75;100.00
41632;BME280;37452;51.938;4.624;2023-01-26T02:33:24;79128.16;;;-142.75;100.00
41632;BME280;37452;51.938;4.624;2023-01-26T02:35:50;79132.09;;;-142.75;100.00
41632;BME280;37452;51.938;4.624;2023-01-26T02:38:16;79128.16;;;-142.75;100.00
41632;BME280;37452;51.938;4.624;2023-01-26T02:40:55;79153.75;;;-142.75;100.00
41632;BME280;37452;51.938;4.624;2023-01-26T02:43:23;79139.97;;;-142.75;100.00
41632;BME280;37452;51.938;4.624;2023-01-26T02:45:50;79153.75;;;-142.75;100.00
41632;BME280;37452;51.938;4.624;2023-01-26T02:48:15;79134.06;;;-142.75;100.00
41632;BME280;37452;51.938;4.624;2023-01-26T02:51:01;79145.88;;;-142.75;100.00
41632;BME280;37452;51.938;4.624;2023-01-26T02:53:26;79143.91;;;-142.75;100.00
41632;BME280;37452;51.938;4.624;2023-01-26T02:55:51;79134.06;;;-142.75;100.00
41632;BME280;37452;51.938;4.624;2023-01-26T02:58:17;79145.88;;;-142.75;100.00
41632;BME280;37452;51.938;4.624;2023-01-26T03:00:42;79151.78;;;-142.75;100.00
41632;BME280;37452;51.938;4.624;2023-01-26T03:03:16;79118.31;;;-142.75;100.00
41632;BME280;37452;51.938;4.624;2023-01-26T03:05:42;79126.19;;;-142.75;100.00
41632;BME280;37452;51.938;4.624;2023-01-26T03:08:07;79116.34;;;-142.75;100.00
41632;BME280;37452;51.938;4.624;2023-01-26T03:10:33;79110.44;;;-142.75;100.00
41632;BME280;37452;51.938;4.624;2023-01-26T03:12:59;79102.56;;;-142.75;100.00
41632;BME280;37452;51.938;4.624;2023-01-26T03:15:25;79102.56;;;-142.75;100.00
41632;BME280;37452;51.938;4.624;2023-01-26T03:18:17;79120.28;;;-142.75;100.00
41632;BME280;37452;51.938;4.624;2023-01-26T03:21:05;79110.44;;;-142.75;100.00
41632;BME280;37452;51.938;4.624;2023-01-26T03:23:50;79096.66;;;-142.75;100.00
41632;BME280;37452;51.938;4.624;2023-01-26T03:26:34;79090.72;;;-142.75;100.00
41632;BME280;37452;51.938;4.624;2023-01-26T03:29:18;79080.88;;;-142.75;100.00
41632;BME280;37452;51.938;4.624;2023-01-26T03:31:44;79078.91;;;-142.75;100.00
41632;BME280;37452;51.938;4.624;2023-01-26T03:34:10;79088.75;;;-142.75;100.00
41632;BME280;37452;51.938;4.624;2023-01-26T03:36:35;79073.00;;;-142.75;100.00
41632;BME280;37452;51.938;4.624;2023-01-26T03:39:03;79073.00;;;-142.75;100.00
41632;BME280;37452;51.938;4.624;2023-01-26T03:41:28;79074.97;;;-142.75;100.00
41632;BME280;37452;51.938;4.624;2023-01-26T03:44:12;79078.91;;;-142.75;100.00
41632;BME280;37452;51.938;4.624;2023-01-26T03:46:56;79071.03;;;-142.75;100.00
41632;BME280;37452;51.938;4.624;2023-01-26T03:49:40;79078.91;;;-142.75;100.00
41632;BME280;37452;51.938;4.624;2023-01-26T03:52:24;79071.03;;;-142.75;100.00
41632;BME280;37452;51.938;4.624;2023-01-26T03:55:07;79051.34;;;-142.75;100.00
41632;BME280;37452;51.938;4.624;2023-01-26T03:57:51;79067.09;;;-142.75;100.00
41632;BME280;37452;51.938;4.624;2023-01-26T04:00:17;79057.25;;;-142.75;100.00
41632;BME280;37452;51.938;4.624;2023-01-26T04:02:42;79047.41;;;-142.75;100.00
41632;BME280;37452;51.938;4.624;2023-01-26T04:05:26;79053.31;;;-142.75;100.00
41632;BME280;37452;51.938;4.624;2023-01-26T04:08:10;79073.00;;;-142.75;100.00
41632;BME280;37452;51.938;4.624;2023-01-26T04:10:44;79059.22;;;-142.75;100.00
41632;BME280;37452;51.938;4.624;2023-01-26T04:13:10;79051.34;;;-142.75;100.00
41632;BME280;37452;51.938;4.624;2023-01-26T04:15:53;79063.16;;;-142.75;100.00
41632;BME280;37452;51.938;4.624;2023-01-26T04:18:37;79063.16;;;-142.75;100.00
41632;BME280;37452;51.938;4.624;2023-01-26T04:21:21;79049.38;;;-142.75;100.00
41632;BME280;37452;51.938;4.624;2023-01-26T04:23:55;79065.13;;;-142.75;100.00
41632;BME280;37452;51.938;4.624;2023-01-26T04:26:22;79065.13;;;-142.75;100.00
41632;BME280;37452;51.938;4.624;2023-01-26T04:28:47;79071.03;;;-142.75;100.00
41632;BME280;37452;51.938;4.624;2023-01-26T04:31:12;79082.84;;;-142.75;100.00
41632;BME280;37452;51.938;4.624;2023-01-26T04:33:38;79080.88;;;-142.75;100.00
41632;BME280;37452;51.938;4.624;2023-01-26T04:36:04;79063.16;;;-142.75;100.00
41632;BME280;37452;51.938;4.624;2023-01-26T04:38:30;79069.06;;;-142.75;100.00
41632;BME280;37452;51.938;4.624;2023-01-26T04:40:55;79051.34;;;-142.75;100.00
41632;BME280;37452;51.938;4.624;2023-01-26T04:43:20;79045.44;;;-142.75;100.00
41632;BME280;37452;51.938;4.624;2023-01-26T04:45:56;79055.28;;;-142.75;100.00
41632;BME280;37452;51.938;4.624;2023-01-26T04:48:22;79061.19;;;-142.75;100.00
41632;BME280;37452;51.938;4.624;2023-01-26T04:50:53;79047.41;;;-142.75;100.00
41632;BME280;37452;51.938;4.624;2023-01-26T04:53:18;79033.63;;;-142.75;100.00
41632;BME280;37452;51.938;4.624;2023-01-26T04:55:43;79049.38;;;-142.75;100.00
41632;BME280;37452;51.938;4.624;2023-01-26T04:58:08;79035.59;;;-142.75;100.00
41632;BME280;37452;51.938;4.624;2023-01-26T05:00:34;79019.81;;;-142.75;100.00
41632;BME280;37452;51.938;4.624;2023-01-26T05:02:59;79019.81;;;-142.75;100.00
41632;BME280;37452;51.938;4.624;2023-01-26T05:05:24;79033.63;;;-142.75;100.00
41632;BME280;37452;51.938;4.624;2023-01-26T05:07:50;79027.69;;;-142.75;100.00
41632;BME280;37452;51.938;4.624;2023-01-26T05:10:17;79021.78;;;-142.75;100.00
41632;BME280;37452;51.938;4.624;2023-01-26T05:12:42;79031.66;;;-142.75;100.00
41632;BME280;37452;51.938;4.624;2023-01-26T05:15:08;79021.78;;;-142.75;100.00
41632;BME280;37452;51.938;4.624;2023-01-26T05:17:33;79027.69;;;-142.75;100.00
41632;BME280;37452;51.938;4.624;2023-01-26T05:20:00;79037.56;;;-142.75;100.00
41632;BME280;37452;51.938;4.624;2023-01-26T05:22:25;79023.75;;;-142.75;100.00
41632;BME280;37452;51.938;4.624;2023-01-26T05:24:51;79031.66;;;-142.75;100.00
41632;BME280;37452;51.938;4.624;2023-01-26T05:27:16;79031.66;;;-142.75;100.00
41632;BME280;37452;51.938;4.624;2023-01-26T05:29:45;79029.66;;;-142.75;100.00
41632;BME280;37452;51.938;4.624;2023-01-26T05:32:10;79031.66;;;-142.75;100.00
41632;BME280;37452;51.938;4.624;2023-01-26T05:34:35;79011.94;;;-142.75;100.00
41632;BME280;37452;51.938;4.624;2023-01-26T05:37:01;79008.00;;;-142.75;100.00
41632;BME280;37452;51.938;4.624;2023-01-26T05:39:26;79000.13;;;-142.75;100.00
41632;BME280;37452;51.938;4.624;2023-01-26T05:41:51;79008.00;;;-142.75;100.00
41632;BME280;37452;51.938;4.624;2023-01-26T05:44:18;79015.88;;;-142.75;100.00
41632;BME280;37452;51.938;4.624;2023-01-26T05:46:43;79021.78;;;-142.75;100.00
41632;BME280;37452;51.938;4.624;2023-01-26T05:49:08;79015.88;;;-142.75;100.00
41632;BME280;37452;51.938;4.624;2023-01-26T05:51:34;78998.16;;;-142.75;100.00
41632;BME280;37452;51.938;4.624;2023-01-26T05:53:59;78998.16;;;-142.75;100.00
41632;BME280;37452;51.938;4.624;2023-01-26T05:56:24;79008.00;;;-142.75;100.00
41632;BME280;37452;51.938;4.624;2023-01-26T05:58:50;79008.00;;;-142.75;100.00
41632;BME280;37452;51.938;4.624;2023-01-26T06:01:15;78992.25;;;-142.75;100.00
41632;BME280;37452;51.938;4.624;2023-01-26T06:03:40;79000.13;;;-142.75;100.00
41632;BME280;37452;51.938;4.624;2023-01-26T06:06:05;78992.25;;;-142.75;100.00
41632;BME280;37452;51.938;4.624;2023-01-26T06:08:31;78992.25;;;-142.75;100.00
41632;BME280;37452;51.938;4.624;2023-01-26T06:10:58;78974.53;;;-142.75;100.00
41632;BME280;37452;51.938;4.624;2023-01-26T06:13:24;78972.56;;;-142.75;100.00
41632;BME280;37452;51.938;4.624;2023-01-26T06:15:49;78976.50;;;-142.75;100.00
41632;BME280;37452;51.938;4.624;2023-01-26T06:18:15;78990.28;;;-142.75;100.00
41632;BME280;37452;51.938;4.624;2023-01-26T06:20:40;78988.31;;;-142.75;100.00
41632;BME280;37452;51.938;4.624;2023-01-26T06:23:06;78976.50;;;-142.75;100.00
41632;BME280;37452;51.938;4.624;2023-01-26T06:25:36;78976.50;;;-142.75;100.00
41632;BME280;37452;51.938;4.624;2023-01-26T06:28:03;78980.44;;;-142.75;100.00
41632;BME280;37452;51.938;4.624;2023-01-26T06:30:29;78978.47;;;-142.75;100.00
41632;BME280;37452;51.938;4.624;2023-01-26T06:32:54;78978.47;;;-142.75;100.00
41632;BME280;37452;51.938;4.624;2023-01-26T06:35:20;78968.63;;;-142.75;100.00
41632;BME280;37452;51.938;4.624;2023-01-26T06:37:48;78968.63;;;-142.75;100.00
41632;BME280;37452;51.938;4.624;2023-01-26T06:40:14;78976.50;;;-142.75;100.00
41632;BME280;37452;51.938;4.624;2023-01-26T06:42:46;78982.41;;;-142.75;100.00
41632;BME280;37452;51.938;4.624;2023-01-26T06:45:11;78984.38;;;-142.75;100.00
41632;BME280;37452;51.938;4.624;2023-01-26T06:47:36;78974.53;;;-142.75;100.00
41632;BME280;37452;51.938;4.624;2023-01-26T06:50:02;78976.50;;;-142.75;100.00
41632;BME280;37452;51.938;4.624;2023-01-26T06:52:31;78972.56;;;-142.75;100.00
41632;BME280;37452;51.938;4.624;2023-01-26T06:54:58;78964.69;;;-142.75;100.00
41632;BME280;37452;51.938;4.624;2023-01-26T06:57:24;78958.75;;;-142.75;100.00
41632;BME280;37452;51.938;4.624;2023-01-26T06:59:50;78943.00;;;-142.75;100.00
41632;BME280;37452;51.938;4.624;2023-01-26T07:02:17;78937.09;;;-142.75;100.00
41632;BME280;37452;51.938;4.624;2023-01-26T07:04:44;78933.16;;;-142.75;100.00
41632;BME280;37452;51.938;4.624;2023-01-26T07:07:09;78933.16;;;-142.75;100.00
41632;BME280;37452;51.938;4.624;2023-01-26T07:09:34;78927.25;;;-142.75;100.00
41632;BME280;37452;51.938;4.624;2023-01-26T07:12:00;78913.47;;;-142.75;100.00
41632;BME280;37452;51.938;4.624;2023-01-26T07:14:25;78903.63;;;-142.75;100.00
41632;BME280;37452;51.938;4.624;2023-01-26T07:16:50;78897.72;;;-142.75;100.00
41632;BME280;37452;51.938;4.624;2023-01-26T07:19:16;78901.66;;;-142.75;100.00
41632;BME280;37452;51.938;4.624;2023-01-26T07:21:41;78891.78;;;-142.75;100.00
41632;BME280;37452;51.938;4.624;2023-01-26T07:24:08;78874.06;;;-142.75;100.00
41632;BME280;37452;51.938;4.624;2023-01-26T07:26:33;78878.00;;;-142.75;100.00
41632;BME280;37452;51.938;4.624;2023-01-26T07:28:58;78864.22;;;-142.75;100.00
41632;BME280;37452;51.938;4.624;2023-01-26T07:31:24;78856.34;;;-142.75;100.00
41632;BME280;37452;51.938;4.624;2023-01-26T07:33:49;78836.66;;;-142.75;100.00
41632;BME280;37452;51.938;4.624;2023-01-26T07:36:14;78826.81;;;-142.75;100.00
41632;BME280;37452;51.938;4.624;2023-01-26T07:38:40;78816.94;;;-142.75;100.00
41632;BME280;37452;51.938;4.624;2023-01-26T07:41:08;78805.13;;;-142.75;100.00
41632;BME280;37452;51.938;4.624;2023-01-26T07:43:35;78795.28;;;-142.75;100.00
41632;BME280;37452;51.938;4.624;2023-01-26T07:46:01;78795.28;;;-142.75;100.00
41632;BME280;37452;51.938;4.624;2023-01-26T07:48:27;78787.41;;;-142.75;100.00
41632;BME280;37452;51.938;4.624;2023-01-26T07:50:57;78765.75;;;-142.75;100.00
41632;BME280;37452;51.938;4.624;2023-01-26T07:53:23;78763.78;;;-142.75;100.00
41632;BME280;37452;51.938;4.624;2023-01-26T07:55:50;78761.81;;;-142.75;100.00
41632;BME280;37452;51.938;4.624;2023-01-26T07:58:15;78771.66;;;-142.75;100.00
41632;BME280;37452;51.938;4.624;2023-01-26T08:00:42;78744.09;;;-142.75;100.00
41632;BME280;37452;51.938;4.624;2023-01-26T08:03:11;78755.91;;;-142.75;100.00
41632;BME280;37452;51.938;4.624;2023-01-26T08:05:37;78751.97;;;-142.75;100.00
41632;BME280;37452;51.938;4.624;2023-01-26T08:08:03;78742.09;;;-142.75;100.00
41632;BME280;37452;51.938;4.624;2023-01-26T08:10:29;78732.25;;;-142.75;100.00
41632;BME280;37452;51.938;4.624;2023-01-26T08:12:58;78740.13;;;-142.75;100.00
41632;BME280;37452;51.938;4.624;2023-01-26T08:15:27;78736.19;;;-142.75;100.00
41632;BME280;37452;51.938;4.624;2023-01-26T08:17:53;78736.19;;;-142.75;100.00
41632;BME280;37452;51.938;4.624;2023-01-26T08:20:19;78728.31;;;-142.75;100.00
41632;BME280;37452;51.938;4.624;2023-01-26T08:22:44;78720.44;;;-142.75;100.00
41632;BME280;37452;51.938;4.624;2023-01-26T08:25:10;78704.69;;;-142.75;100.00
41632;BME280;37452;51.938;4.624;2023-01-26T08:27:35;78712.56;;;-142.75;100.00
41632;BME280;37452;51.938;4.624;2023-01-26T08:30:00;78722.41;;;-142.75;100.00
41632;BME280;37452;51.938;4.624;2023-01-26T08:32:28;78720.44;;;-142.75;100.00
41632;BME280;37452;51.938;4.624;2023-01-26T08:34:54;78706.66;;;-142.75;100.00
41632;BME280;37452;51.938;4.624;2023-01-26T08:37:19;78712.56;;;-142.75;100.00
41632;BME280;37452;51.938;4.624;2023-01-26T08:39:44;78700.75;;;-142.75;100.00
41632;BME280;37452;51.938;4.624;2023-01-26T08:42:10;78702.72;;;-142.75;100.00
41632;BME280;37452;51.938;4.624;2023-01-26T08:44:35;78704.69;;;-142.75;100.00
41632;BME280;37452;51.938;4.624;2023-01-26T08:47:00;78710.59;;;-142.75;100.00
41632;BME280;37452;51.938;4.624;2023-01-26T08:49:25;78694.84;;;-142.75;100.00
41632;BME280;37452;51.938;4.624;2023-01-26T08:51:51;78700.75;;;-142.75;100.00
41632;BME280;37452;51.938;4.624;2023-01-26T08:54:16;78704.69;;;-142.75;100.00
41632;BME280;37452;51.938;4.624;2023-01-26T08:56:41;78716.50;;;-142.75;100.00
41632;BME280;37452;51.938;4.624;2023-01-26T08:59:07;78712.56;;;-142.75;100.00
41632;BME280;37452;51.938;4.624;2023-01-26T09:01:32;78720.44;;;-142.75;100.00
41632;BME280;37452;51.938;4.624;2023-01-26T09:03:57;78698.78;;;-142.75;100.00
41632;BME280;37452;51.938;4.624;2023-01-26T09:06:23;78688.94;;;-142.75;100.00
41632;BME280;37452;51.938;4.624;2023-01-26T09:08:49;78643.63;;;-142.75;100.00
41632;BME280;37452;51.938;4.624;2023-01-26T09:11:14;78641.66;;;-142.75;100.00
41632;BME280;37452;51.938;4.624;2023-01-26T09:13:40;78614.09;;;-142.75;100.00
41632;BME280;37452;51.938;4.624;2023-01-26T09:16:07;78576.66;;;-142.75;100.00
41632;BME280;37452;51.938;4.624;2023-01-26T09:18:36;78594.41;;;-142.75;100.00
41632;BME280;37452;51.938;4.624;2023-01-26T09:21:06;78570.75;;;-142.75;100.00
41632;BME280;37452;51.938;4.624;2023-01-26T09:23:32;78570.75;;;-142.75;100.00
41632;BME280;37452;51.938;4.624;2023-01-26T09:25:58;78570.75;;;-142.75;100.00
41632;BME280;37452;51.938;4.624;2023-01-26T09:28:23;78580.59;;;-142.75;100.00
41632;BME280;37452;51.938;4.624;2023-01-26T09:30:48;78606.22;;;-142.75;100.00
41632;BME280;37452;51.938;4.624;2023-01-26T09:33:13;78625.91;;;-142.75;100.00
41632;BME280;37452;51.938;4.624;2023-01-26T09:35:39;78604.25;;;-142.75;100.00
41632;BME280;37452;51.938;4.624;2023-01-26T09:38:04;78616.06;;;-142.75;100.00
41632;BME280;37452;51.938;4.624;2023-01-26T09:46:23;78645.59;;;-142.75;100.00
41632;BME280;37452;51.938;4.624;2023-01-26T09:49:05;78633.78;;;-142.75;100.00
41632;BME280;37452;51.938;4.624;2023-01-26T09:51:37;78649.53;;;-142.75;100.00
41632;BME280;37452;51.938;4.624;2023-01-26T09:54:30;78629.84;;;-142.75;100.00
41632;BME280;37452;51.938;4.624;2023-01-26T09:57:00;78616.06;;;-142.75;100.00
41632;BME280;37452;51.938;4.624;2023-01-26T09:59:31;78629.84;;;-142.75;100.00
41632;BME280;37452;51.938;4.624;2023-01-26T10:04:47;78600.31;;;-142.75;100.00
41632;BME280;37452;51.938;4.624;2023-01-26T10:07:13;78614.09;;;-142.75;100.00
41632;BME280;37452;51.938;4.624;2023-01-26T10:09:40;78590.47;;;-142.75;100.00
41632;BME280;37452;51.938;4.624;2023-01-26T10:12:17;78616.06;;;-142.75;100.00
41632;BME280;37452;51.938;4.624;2023-01-26T10:17:42;78574.69;;;-142.75;100.00
41632;BME280;37452;51.938;4.624;2023-01-26T10:20:30;78582.59;;;-142.75;100.00
41632;BME280;37452;51.938;4.624;2023-01-26T10:23:03;78564.84;;;-142.75;100.00
41632;BME280;37452;51.938;4.624;2023-01-26T10:25:33;78553.03;;;-142.75;100.00
41632;BME280;37452;51.938;4.624;2023-01-26T10:28:08;78527.44;;;-142.75;100.00
41632;BME280;37452;51.938;4.624;2023-01-26T10:30:35;78499.88;;;-142.75;100.00
41632;BME280;37452;51.938;4.624;2023-01-26T10:33:00;78511.69;;;-142.75;100.00
41632;BME280;37452;51.938;4.624;2023-01-26T10:35:26;78511.69;;;-142.75;100.00
41632;BME280;37452;51.938;4.624;2023-01-26T10:37:51;78527.44;;;-142.75;100.00
41632;BME280;37452;51.938;4.624;2023-01-26T10:40:18;78511.69;;;-142.75;100.00
41632;BME280;37452;51.938;4.624;2023-01-26T10:42:54;78497.91;;;-142.75;100.00
41632;BME280;37452;51.938;4.624;2023-01-26T10:45:31;78488.03;;;-142.75;100.00
41632;BME280;37452;51.938;4.624;2023-01-26T10:48:03;78428.97;;;-142.75;100.00
41632;BME280;37452;51.938;4.624;2023-01-26T10:50:29;78395.47;;;-142.75;100.00
41632;BME280;37452;51.938;4.624;2023-01-26T10:55:22;78295.06;;;-142.75;100.00
41632;BME280;37452;51.938;4.624;2023-01-26T10:57:48;78255.66;;;-142.75;100.00
41632;BME280;37452;51.938;4.624;2023-01-26T11:00:24;78228.09;;;-142.75;100.00
41632;BME280;37452;51.938;4.624;2023-01-26T11:02:57;78180.81;;;-142.75;100.00
41632;BME280;37452;51.938;4.624;2023-01-26T11:05:25;78190.69;;;-142.75;100.00
41632;BME280;37452;51.938;4.624;2023-01-26T11:07:52;78163.09;;;-142.75;100.00
41632;BME280;37452;51.938;4.624;2023-01-26T11:13:28;78107.97;;;-142.75;100.00
41632;BME280;37452;51.938;4.624;2023-01-26T11:19:03;78042.97;;;-142.75;100.00
41632;BME280;37452;51.938;4.624;2023-01-26T11:21:33;78015.41;;;-142.75;100.00
41632;BME280;37452;51.938;4.624;2023-01-26T11:24:11;78046.91;;;-142.75;100.00
41632;BME280;37452;51.938;4.624;2023-01-26T11:27:06;78019.34;;;-142.75;100.00
41632;BME280;37452;51.938;4.624;2023-01-26T11:29:40;78011.47;;;-142.75;100.00
41632;BME280;37452;51.938;4.624;2023-01-26T11:32:50;77968.16;;;-142.75;100.00
41632;BME280;37452;51.938;4.624;2023-01-26T11:35:49;77983.91;;;-142.75;100.00
41632;BME280;37452;51.938;4.624;2023-01-26T11:46:19;77948.47;;;-142.75;100.00
41632;BME280;37452;51.938;4.624;2023-01-26T11:54:35;77924.84;;;-142.75;100.00
41632;BME280;37452;51.938;4.624;2023-01-26T11:59:35;77857.88;;;-142.75;100.00
41632;BME280;37452;51.938;4.624;2023-01-26T12:04:30;77865.75;;;-142.75;100.00
41632;BME280;37452;51.938;4.624;2023-01-26T12:07:02;77889.38;;;-142.75;100.00
41632;BME280;37452;51.938;4.624;2023-01-26T12:09:34;77830.31;;;-142.75;100.00
41632;BME280;37452;51.938;4.624;2023-01-26T12:12:07;77964.22;;;-142.75;100.00
41632;BME280;37452;51.938;4.624;2023-01-26T12:14:40;78005.56;;;-142.75;100.00
41632;BME280;37452;51.938;4.624;2023-01-26T12:20:25;78074.50;;;-142.75;100.00
41632;BME280;37452;51.938;4.624;2023-01-26T12:23:08;78094.19;;;-142.75;100.00
41632;BME280;37452;51.938;4.624;2023-01-26T12:26:19;78098.13;;;-142.75;100.00
41632;BME280;37452;51.938;4.624;2023-01-26T12:28:29;78123.72;;;-142.75;100.00
41632;BME280;37452;51.938;4.624;2023-01-26T12:33:42;78182.81;;;-142.75;100.00
41632;BME280;37452;51.938;4.624;2023-01-26T12:39:11;78245.81;;;-142.75;100.00
41632;BME280;37452;51.938;4.624;2023-01-26T12:46:55;78145.38;;;-142.75;100.00
41632;BME280;37452;51.938;4.624;2023-01-26T12:49:34;78106.00;;;-142.75;100.00
41632;BME280;37452;51.938;4.624;2023-01-26T12:52:14;78003.59;;;-142.75;100.00
41632;BME280;37452;51.938;4.624;2023-01-26T12:54:48;77970.13;;;-142.75;100.00
41632;BME280;37452;51.938;4.624;2023-01-26T12:57:20;77932.72;;;-142.75;100.00
41632;BME280;37452;51.938;4.624;2023-01-26T12:59:46;77944.53;;;-142.75;100.00
41632;BME280;37452;51.938;4.624;2023-01-26T13:04:38;78031.16;;;-142.75;100.00
41632;BME280;37452;51.938;4.624;2023-01-26T13:07:29;78070.56;;;-142.75;100.00
41632;BME280;37452;51.938;4.624;2023-01-26T13:15:27;78184.78;;;-142.75;100.00
41632;BME280;37452;51.938;4.624;2023-01-26T13:20:28;78194.63;;;-142.75;100.00
41632;BME280;37452;51.938;4.624;2023-01-26T13:23:38;78230.06;;;-142.75;100.00
41632;BME280;37452;51.938;4.624;2023-01-26T13:26:15;78212.34;;;-142.75;100.00
41632;BME280;37452;51.938;4.624;2023-01-26T13:28:41;78232.03;;;-142.75;100.00
41632;BME280;37452;51.938;4.624;2023-01-26T13:31:09;78247.78;;;-142.75;100.00
41632;BME280;37452;51.938;4.624;2023-01-26T13:33:35;78247.78;;;-142.75;100.00
41632;BME280;37452;51.938;4.624;2023-01-26T13:36:03;78267.47;;;-142.75;100.00
41632;BME280;37452;51.938;4.624;2023-01-26T13:38:38;78275.34;;;-142.75;100.00
41632;BME280;37452;51.938;4.624;2023-01-26T13:41:17;78283.22;;;-142.75;100.00
41632;BME280;37452;51.938;4.624;2023-01-26T13:44:05;78310.81;;;-142.75;100.00
41632;BME280;37452;51.938;4.624;2023-01-26T13:46:37;78324.59;;;-142.75;100.00
41632;BME280;37452;51.938;4.624;2023-01-26T13:49:05;78340.34;;;-142.75;100.00
41632;BME280;37452;51.938;4.624;2023-01-26T13:51:32;78322.63;;;-142.75;100.00
41632;BME280;37452;51.938;4.624;2023-01-26T13:54:02;78318.69;;;-142.75;100.00